Time;durP1;ratioP1;P1;durP2;ratioP2;P2;SDS_P1;SDS_P2;PMS_P1;PMS_P2;Temp;Humidity;BMP_temperature;BMP_pressure;BME280_temperature;BME280_humidity;BME280_pressure;Samples;Min_cycle;Max_cycle;Signal;HPM_P1;HPM_P2
2021/07/08 00:00:21;;;;;;;2.67;2.10;;;17.30;99.90;;;;;;5032189;28;20183;-72
2021/07/08 00:02:50;;;;;;;3.27;2.10;;;17.20;99.90;;;;;;5032255;28;20201;-72
2021/07/08 00:05:17;;;;;;;3.03;2.27;;;17.20;99.90;;;;;;5032539;28;20217;-72
2021/07/08 00:07:43;;;;;;;2.23;2.03;;;17.10;99.90;;;;;;5032364;28;20257;-72
2021/07/08 00:10:11;;;;;;;3.97;2.20;;;17.10;99.90;;;;;;5015562;28;20613;-72
2021/07/08 00:12:36;;;;;;;2.67;2.13;;;17.10;99.90;;;;;;5031997;28;20199;-72
2021/07/08 00:15:07;;;;;;;4.13;2.47;;;17.10;99.90;;;;;;5032261;28;20556;-72
2021/07/08 00:17:33;;;;;;;4.03;2.20;;;17.00;99.90;;;;;;5032195;28;20174;-71
2021/07/08 00:19:58;;;;;;;2.13;1.93;;;17.00;99.90;;;;;;5015318;28;20665;-72
2021/07/08 00:22:24;;;;;;;2.67;1.80;;;17.00;99.90;;;;;;5033316;28;20591;-72
2021/07/08 00:24:49;;;;;;;2.20;2.00;;;17.00;99.90;;;;;;5032161;28;20674;-72
2021/07/08 00:27:15;;;;;;;3.07;2.43;;;17.00;99.90;;;;;;5033247;28;20584;-72
2021/07/08 00:29:40;;;;;;;2.90;1.97;;;16.90;99.90;;;;;;5031843;28;20692;-72
2021/07/08 00:32:07;;;;;;;3.60;2.20;;;16.90;99.90;;;;;;5031836;28;20760;-71
2021/07/08 00:34:32;;;;;;;2.50;2.27;;;16.80;99.90;;;;;;5031682;28;20267;-72
2021/07/08 00:36:58;;;;;;;4.27;2.60;;;16.90;99.90;;;;;;5031645;28;20190;-72
2021/07/08 00:39:24;;;;;;;5.47;2.20;;;16.80;99.90;;;;;;5031731;28;20205;-72
2021/07/08 00:41:50;;;;;;;4.00;2.17;;;16.80;99.90;;;;;;5031519;28;20194;-72
2021/07/08 00:44:15;;;;;;;2.93;2.20;;;16.80;99.90;;;;;;5031399;28;20202;-71
2021/07/08 00:46:41;;;;;;;3.43;2.17;;;16.70;99.90;;;;;;5031618;28;20561;-72
2021/07/08 00:49:06;;;;;;;3.40;2.37;;;16.70;99.90;;;;;;5032493;28;20236;-72
2021/07/08 00:51:32;;;;;;;2.50;2.30;;;16.60;99.90;;;;;;5031287;28;20213;-71
2021/07/08 00:53:58;;;;;;;3.13;2.17;;;16.60;99.90;;;;;;5032404;28;20202;-72
2021/07/08 00:56:23;;;;;;;3.07;2.20;;;16.60;99.90;;;;;;5032471;28;20261;-72
2021/07/08 00:59:08;;;;;;;2.93;2.20;;;16.50;99.90;;;;;;5031121;28;20178;-71
2021/07/08 01:01:34;;;;;;;3.17;2.00;;;16.50;99.90;;;;;;5032396;28;20263;-71
2021/07/08 01:04:03;;;;;;;4.30;2.43;;;16.50;99.90;;;;;;5031086;28;20653;-71
2021/07/08 01:06:30;;;;;;;3.07;2.13;;;16.50;99.90;;;;;;5031370;28;20581;-71
2021/07/08 01:08:55;;;;;;;2.97;2.43;;;16.50;99.90;;;;;;5030888;28;20931;-71
2021/07/08 01:11:22;;;;;;;2.73;2.03;;;16.40;99.90;;;;;;5030986;28;20207;-71
2021/07/08 01:13:47;;;;;;;3.07;2.13;;;16.40;99.90;;;;;;5031012;28;20179;-72
2021/07/08 01:16:13;;;;;;;6.83;2.73;;;16.40;99.90;;;;;;5030912;28;20529;-72
2021/07/08 01:18:39;;;;;;;3.23;1.97;;;16.40;99.90;;;;;;5030879;28;20176;-71
2021/07/08 01:21:29;;;;;;;3.50;2.40;;;16.30;99.90;;;;;;5031015;28;20306;-72
2021/07/08 01:23:56;;;;;;;3.90;2.23;;;16.30;99.90;;;;;;5030815;28;20641;-72
2021/07/08 01:26:22;;;;;;;2.73;2.20;;;16.30;99.90;;;;;;5030927;28;20553;-71
2021/07/08 01:28:51;;;;;;;2.60;2.30;;;16.20;99.90;;;;;;5030594;28;20178;-72
2021/07/08 01:31:17;;;;;;;3.53;2.17;;;16.20;99.90;;;;;;5031921;28;20219;-72
2021/07/08 01:33:42;;;;;;;3.90;2.23;;;16.20;99.90;;;;;;5030836;28;20256;-72
2021/07/08 01:36:08;;;;;;;2.57;2.20;;;16.20;99.90;;;;;;5030628;28;20668;-72
2021/07/08 01:38:33;;;;;;;2.57;1.93;;;16.30;99.90;;;;;;5030871;28;20272;-72
2021/07/08 01:41:00;;;;;;;2.30;2.00;;;16.30;99.90;;;;;;5030479;28;20171;-71
2021/07/08 01:43:25;;;;;;;3.33;2.53;;;16.20;99.90;;;;;;5031937;28;20179;-72
2021/07/08 01:45:51;;;;;;;3.10;2.67;;;16.20;99.90;;;;;;5030576;28;20223;-72
2021/07/08 01:48:16;;;;;;;4.67;2.43;;;16.20;99.90;;;;;;5014235;28;20230;-71
2021/07/08 01:50:42;;;;;;;2.50;2.27;;;16.20;99.90;;;;;;5032222;28;20175;-71
2021/07/08 01:53:07;;;;;;;3.93;2.40;;;16.20;99.90;;;;;;5018143;28;20216;-72
2021/07/08 01:55:33;;;;;;;2.27;2.00;;;16.20;99.90;;;;;;5034609;28;20200;-71
2021/07/08 01:58:01;;;;;;;2.70;2.50;;;16.10;99.90;;;;;;5018349;28;20218;-72
2021/07/08 02:00:26;;;;;;;4.90;2.30;;;16.10;99.90;;;;;;5034437;28;20608;-72
2021/07/08 02:02:52;;;;;;;3.00;2.13;;;16.10;99.90;;;;;;5035748;28;20202;-71
2021/07/08 02:05:18;;;;;;;3.37;2.60;;;16.10;99.90;;;;;;5034514;28;20214;-71
2021/07/08 02:07:43;;;;;;;2.93;2.40;;;16.10;99.90;;;;;;5017928;28;20183;-71
2021/07/08 02:10:09;;;;;;;3.47;2.70;;;16.20;99.90;;;;;;5034274;28;20182;-71
2021/07/08 02:12:36;;;;;;;3.20;2.60;;;16.20;99.90;;;;;;5035609;28;20270;-72
2021/07/08 02:15:03;;;;;;;3.80;2.27;;;16.20;99.90;;;;;;5017890;28;20221;-72
2021/07/08 02:17:28;;;;;;;3.17;2.53;;;16.10;99.90;;;;;;5034252;28;20179;-71
2021/07/08 02:19:54;;;;;;;3.23;2.40;;;16.00;99.90;;;;;;5033309;28;20530;-72
2021/07/08 02:22:19;;;;;;;4.27;2.60;;;16.00;99.90;;;;;;5035486;28;20636;-71
2021/07/08 02:24:45;;;;;;;3.40;2.77;;;15.90;99.90;;;;;;5035356;28;20756;-71
2021/07/08 02:27:10;;;;;;;3.23;2.40;;;15.90;99.90;;;;;;5035254;28;20650;-72
2021/07/08 02:29:36;;;;;;;3.50;2.67;;;15.90;99.90;;;;;;5033905;28;20179;-72
2021/07/08 02:32:02;;;;;;;3.20;2.77;;;15.80;99.90;;;;;;5017378;28;20203;-72
2021/07/08 02:34:27;;;;;;;3.33;2.50;;;15.80;99.90;;;;;;5033692;28;20689;-71
2021/07/08 02:36:53;;;;;;;3.83;2.77;;;15.80;99.90;;;;;;5017399;28;20196;-72
2021/07/08 02:39:18;;;;;;;3.87;2.77;;;15.80;99.90;;;;;;5033735;28;20178;-72
2021/07/08 02:41:44;;;;;;;2.90;2.60;;;15.80;99.90;;;;;;5033852;28;20187;-72
2021/07/08 02:44:10;;;;;;;5.03;2.93;;;15.80;99.90;;;;;;5033862;28;20197;-72
2021/07/08 02:46:35;;;;;;;2.80;2.30;;;15.80;99.90;;;;;;5017234;28;20294;-72
2021/07/08 02:49:01;;;;;;;3.27;2.67;;;15.80;99.90;;;;;;5033579;28;20182;-72
2021/07/08 02:51:26;;;;;;;4.30;3.00;;;15.70;99.90;;;;;;5033654;28;20189;-72
2021/07/08 02:53:52;;;;;;;3.53;3.13;;;15.70;99.90;;;;;;5034918;28;20179;-72
2021/07/08 02:56:17;;;;;;;3.50;2.93;;;15.70;99.90;;;;;;5034829;28;20262;-71
2021/07/08 02:58:43;;;;;;;4.57;3.00;;;15.70;99.90;;;;;;5034432;28;20213;-72
2021/07/08 03:01:08;;;;;;;3.77;3.10;;;15.60;99.90;;;;;;5034525;28;20189;-71
2021/07/08 03:03:34;;;;;;;4.87;3.20;;;15.60;99.90;;;;;;5033794;28;20269;-71
2021/07/08 03:06:00;;;;;;;4.70;3.10;;;15.60;99.90;;;;;;5034458;28;20206;-71
2021/07/08 03:08:25;;;;;;;4.23;2.90;;;15.60;99.90;;;;;;5033373;28;20653;-71
2021/07/08 03:10:51;;;;;;;4.40;2.60;;;15.60;99.90;;;;;;5034342;28;20555;-72
2021/07/08 03:13:16;;;;;;;5.90;2.67;;;15.60;99.90;;;;;;5033137;28;20582;-72
2021/07/08 03:15:42;;;;;;;3.67;2.77;;;15.60;99.90;;;;;;5034742;28;20560;-71
2021/07/08 03:18:07;;;;;;;3.83;3.00;;;15.50;99.90;;;;;;5034281;28;20626;-71
2021/07/08 03:20:34;;;;;;;3.57;2.70;;;15.50;99.90;;;;;;5033006;28;20528;-71
2021/07/08 03:23:00;;;;;;;4.67;2.90;;;15.50;99.90;;;;;;5033055;28;20220;-72
2021/07/08 03:25:26;;;;;;;5.43;3.30;;;15.50;99.90;;;;;;5033124;28;20199;-71
2021/07/08 03:27:52;;;;;;;3.80;2.90;;;15.50;99.90;;;;;;5032934;28;20175;-71
2021/07/08 03:30:19;;;;;;;3.60;2.83;;;15.40;99.90;;;;;;5032770;28;20179;-71
2021/07/08 03:32:46;;;;;;;4.30;3.10;;;15.50;99.90;;;;;;5032750;28;20269;-71
2021/07/08 03:35:12;;;;;;;3.33;2.70;;;15.50;99.90;;;;;;5033989;28;20194;-72
2021/07/08 03:37:37;;;;;;;6.17;3.03;;;15.40;99.90;;;;;;5032812;28;20186;-71
2021/07/08 03:40:04;;;;;;;3.77;2.73;;;15.40;99.90;;;;;;5032527;28;20179;-71
2021/07/08 03:42:30;;;;;;;3.87;2.97;;;15.50;99.90;;;;;;5032667;28;20196;-71
2021/07/08 03:44:55;;;;;;;5.80;2.93;;;15.50;99.90;;;;;;5032929;28;20203;-71
2021/07/08 03:47:21;;;;;;;3.90;3.10;;;15.40;99.90;;;;;;5033953;28;20187;-71
2021/07/08 03:49:46;;;;;;;4.17;3.43;;;15.40;99.90;;;;;;5032544;28;20193;-71
2021/07/08 03:52:12;;;;;;;5.57;3.00;;;15.40;99.90;;;;;;5032641;28;20575;-71
2021/07/08 03:54:37;;;;;;;3.33;3.03;;;15.40;99.90;;;;;;5033667;28;20214;-71
2021/07/08 03:57:03;;;;;;;3.40;2.83;;;15.40;99.90;;;;;;5032410;28;20641;-71
2021/07/08 03:59:29;;;;;;;3.33;2.90;;;15.40;99.90;;;;;;5033598;28;20178;-72
2021/07/08 04:01:55;;;;;;;3.97;3.07;;;15.40;99.90;;;;;;5032383;28;20174;-71
2021/07/08 04:04:20;;;;;;;4.60;2.77;;;15.40;99.90;;;;;;5015654;28;20211;-71
2021/07/08 04:06:46;;;;;;;5.97;3.27;;;15.40;99.90;;;;;;5032278;28;20179;-72
2021/07/08 04:09:11;;;;;;;4.13;3.10;;;15.50;99.90;;;;;;5033152;28;20183;-72
2021/07/08 04:11:37;;;;;;;6.37;3.50;;;15.40;99.90;;;;;;5031992;28;20178;-72
2021/07/08 04:14:03;;;;;;;4.27;3.30;;;15.50;99.90;;;;;;5033076;28;20171;-72
2021/07/08 04:16:28;;;;;;;5.03;3.53;;;15.50;99.90;;;;;;5032051;28;20201;-72
2021/07/08 04:18:54;;;;;;;4.37;3.53;;;15.60;99.90;;;;;;5033022;28;20680;-71
2021/07/08 04:21:19;;;;;;;4.80;3.60;;;15.60;99.90;;;;;;5015489;28;20233;-71
2021/07/08 04:23:45;;;;;;;4.40;3.60;;;15.70;99.90;;;;;;5031920;28;20253;-71
2021/07/08 04:26:10;;;;;;;6.63;3.87;;;15.70;99.90;;;;;;5031955;28;20272;-71
2021/07/08 04:28:37;;;;;;;4.03;3.63;;;15.70;99.90;;;;;;5015233;28;20171;-71
2021/07/08 04:31:03;;;;;;;5.07;3.73;;;15.70;99.90;;;;;;5032873;28;20167;-71
2021/07/08 04:33:28;;;;;;;3.53;3.23;;;15.70;99.90;;;;;;5031708;28;20210;-71
2021/07/08 04:35:54;;;;;;;5.87;3.60;;;15.70;99.90;;;;;;5031583;28;20191;-71
2021/07/08 04:38:21;;;;;;;5.40;4.03;;;15.70;99.90;;;;;;5015146;28;20183;-71
2021/07/08 04:40:46;;;;;;;4.07;3.30;;;15.80;99.90;;;;;;5032609;28;20221;-71
2021/07/08 04:43:12;;;;;;;4.67;3.23;;;15.90;99.90;;;;;;5031660;28;20175;-71
2021/07/08 04:45:37;;;;;;;5.13;3.73;;;15.90;99.90;;;;;;5031299;28;20623;-71
2021/07/08 04:48:04;;;;;;;5.53;3.87;;;15.90;99.90;;;;;;5031560;28;20187;-71
2021/07/08 04:50:31;;;;;;;4.17;3.67;;;16.00;99.90;;;;;;5031292;28;20233;-72
2021/07/08 04:52:56;;;;;;;4.43;3.43;;;16.00;99.90;;;;;;5031337;28;20199;-71
2021/07/08 04:55:23;;;;;;;4.10;3.50;;;16.00;99.90;;;;;;5032399;28;20673;-71
2021/07/08 04:57:49;;;;;;;4.73;3.80;;;16.00;99.90;;;;;;5031362;28;20182;-71
2021/07/08 05:00:15;;;;;;;3.77;3.27;;;16.10;99.90;;;;;;5031023;28;20692;-71
2021/07/08 05:02:41;;;;;;;4.30;3.20;;;16.10;99.90;;;;;;5031317;28;20556;-72
2021/07/08 05:05:08;;;;;;;6.83;3.50;;;16.20;99.90;;;;;;5031839;28;20242;-71
2021/07/08 05:07:34;;;;;;;5.00;3.90;;;16.20;99.90;;;;;;5031736;28;20221;-71
2021/07/08 05:09:59;;;;;;;4.80;3.63;;;16.20;99.90;;;;;;5031280;28;20193;-71
2021/07/08 05:12:25;;;;;;;7.00;3.80;;;16.30;99.90;;;;;;5031347;28;20678;-70
2021/07/08 05:14:50;;;;;;;5.13;4.27;;;16.40;99.90;;;;;;5031181;28;20693;-71
2021/07/08 05:17:18;;;;;;;4.63;3.73;;;16.50;99.90;;;;;;5032590;28;20178;-71
2021/07/08 05:19:44;;;;;;;7.03;4.27;;;16.60;99.90;;;;;;5014840;28;20170;-71
2021/07/08 05:22:09;;;;;;;5.30;3.57;;;16.70;99.90;;;;;;5031189;28;20179;-71
2021/07/08 05:24:35;;;;;;;4.87;3.50;;;16.70;99.90;;;;;;5030680;28;20567;-71
2021/07/08 05:27:00;;;;;;;6.00;3.93;;;16.70;99.90;;;;;;5031060;28;20179;-70
2021/07/08 05:29:26;;;;;;;5.83;3.93;;;16.80;99.90;;;;;;5030731;28;20179;-71
2021/07/08 05:31:52;;;;;;;6.13;3.70;;;16.90;99.90;;;;;;5031090;28;20218;-71
2021/07/08 05:34:18;;;;;;;5.50;3.77;;;17.00;99.90;;;;;;5031001;28;20197;-71
2021/07/08 05:36:43;;;;;;;4.50;3.53;;;17.10;99.90;;;;;;5030922;28;20171;-71
2021/07/08 05:39:09;;;;;;;5.37;4.10;;;17.10;99.90;;;;;;5030677;28;20186;-71
2021/07/08 05:41:34;;;;;;;4.60;3.73;;;17.30;99.90;;;;;;5030928;28;20173;-71
2021/07/08 05:44:00;;;;;;;4.30;3.70;;;17.40;99.90;;;;;;5014369;28;20187;-71
2021/07/08 05:46:26;;;;;;;5.90;3.83;;;17.50;99.90;;;;;;5030903;28;20159;-70
2021/07/08 05:48:53;;;;;;;4.40;3.60;;;17.60;99.90;;;;;;5030872;28;20167;-71
2021/07/08 05:51:18;;;;;;;4.50;3.80;;;17.60;99.90;;;;;;5030856;28;20171;-71
2021/07/08 05:53:44;;;;;;;6.43;4.00;;;17.70;99.90;;;;;;5031981;28;20747;-71
2021/07/08 05:56:09;;;;;;;4.43;3.83;;;17.80;99.90;;;;;;5030757;28;20288;-70
2021/07/08 05:58:35;;;;;;;5.73;4.03;;;17.70;99.90;;;;;;5030620;28;20246;-71
2021/07/08 06:01:00;;;;;;;4.17;3.67;;;17.70;99.90;;;;;;5030693;28;20245;-71
2021/07/08 06:03:26;;;;;;;5.17;4.33;;;17.70;99.90;;;;;;5030871;28;20553;-71
2021/07/08 06:05:51;;;;;;;6.70;4.30;;;17.70;99.90;;;;;;5031874;28;20297;-70
2021/07/08 06:08:17;;;;;;;6.30;3.90;;;17.70;99.90;;;;;;5030617;28;20209;-70
2021/07/08 06:10:43;;;;;;;4.47;4.03;;;17.90;99.90;;;;;;5030368;28;20179;-70
2021/07/08 06:13:09;;;;;;;7.03;4.27;;;18.00;99.90;;;;;;5030632;28;20199;-70
2021/07/08 06:15:35;;;;;;;5.60;3.93;;;18.10;99.90;;;;;;5030556;28;20195;-70
2021/07/08 06:18:00;;;;;;;4.57;3.80;;;18.20;99.90;;;;;;5031793;28;20309;-70
2021/07/08 06:20:27;;;;;;;5.30;4.03;;;18.20;99.90;;;;;;5030413;28;20250;-70
2021/07/08 06:22:53;;;;;;;8.10;4.37;;;18.20;99.90;;;;;;5031732;28;20701;-69
2021/07/08 06:25:18;;;;;;;6.63;4.37;;;18.10;99.90;;;;;;5030532;28;20298;-70
2021/07/08 06:27:44;;;;;;;5.93;4.97;;;18.10;99.90;;;;;;5030297;28;20265;-69
2021/07/08 06:30:10;;;;;;;5.37;3.83;;;18.10;99.90;;;;;;5030301;28;20270;-70
2021/07/08 06:32:35;;;;;;;9.27;4.57;;;18.10;99.90;;;;;;5030258;28;20207;-70
2021/07/08 06:35:02;;;;;;;4.37;3.90;;;18.10;99.90;;;;;;5030434;28;20194;-70
2021/07/08 06:37:28;;;;;;;5.63;4.30;;;18.10;99.90;;;;;;5032867;28;20178;-70
2021/07/08 06:39:53;;;;;;;7.07;4.50;;;18.10;99.90;;;;;;5035108;28;20557;-70
2021/07/08 06:42:20;;;;;;;5.87;4.40;;;18.20;99.90;;;;;;5033998;28;20523;-70
2021/07/08 06:44:46;;;;;;;6.73;4.33;;;18.20;99.90;;;;;;5033897;28;20198;-70
2021/07/08 06:47:15;;;;;;;5.87;4.70;;;18.20;99.90;;;;;;5033776;28;20178;-70
2021/07/08 06:49:41;;;;;;;6.77;4.57;;;18.30;99.90;;;;;;5033652;28;20273;-70
2021/07/08 06:52:06;;;;;;;8.10;5.00;;;18.50;99.90;;;;;;5033806;28;20269;-70
2021/07/08 06:54:32;;;;;;;7.20;5.17;;;18.60;99.90;;;;;;5033744;28;20248;-70
2021/07/08 06:56:58;;;;;;;8.23;6.40;;;18.70;99.90;;;;;;5033565;28;20179;-72
2021/07/08 06:59:23;;;;;;;7.30;5.50;;;18.90;99.90;;;;;;5034610;28;20641;-70
2021/07/08 07:01:49;;;;;;;10.20;5.70;;;18.90;99.90;;;;;;5033608;28;20229;-70
2021/07/08 07:04:15;;;;;;;6.87;5.40;;;19.10;99.90;;;;;;5033415;28;20218;-69
2021/07/08 07:06:40;;;;;;;9.10;5.33;;;19.20;99.90;;;;;;5033721;28;20186;-70
2021/07/08 07:09:06;;;;;;;5.87;5.13;;;19.20;99.90;;;;;;5033458;28;20186;-70
2021/07/08 07:11:31;;;;;;;5.83;4.60;;;19.30;99.90;;;;;;5033648;28;20179;-70
2021/07/08 07:13:57;;;;;;;9.63;4.80;;;19.40;99.90;;;;;;5034511;28;20185;-70
2021/07/08 07:16:23;;;;;;;6.63;4.67;;;19.60;99.90;;;;;;5033526;28;20654;-70
2021/07/08 07:18:48;;;;;;;4.93;4.33;;;19.90;99.90;;;;;;5016836;28;20341;-71
2021/07/08 07:21:14;;;;;;;6.20;4.57;;;20.10;99.90;;;;;;5033321;28;20564;-70
2021/07/08 07:23:40;;;;;;;5.80;4.67;;;20.20;99.90;;;;;;5033187;28;20175;-70
2021/07/08 07:26:06;;;;;;;7.17;4.17;;;20.40;99.90;;;;;;5033096;28;20705;-70
2021/07/08 07:28:31;;;;;;;6.93;4.47;;;20.80;99.90;;;;;;5033060;28;20651;-71
2021/07/08 07:30:57;;;;;;;4.70;3.63;;;21.20;99.90;;;;;;5032931;28;20210;-71
2021/07/08 07:33:22;;;;;;;5.43;3.77;;;21.40;99.90;;;;;;5032963;28;20728;-70
2021/07/08 07:35:48;;;;;;;6.43;3.63;;;21.80;99.90;;;;;;5032921;28;20605;-70
2021/07/08 07:38:13;;;;;;;6.23;3.73;;;21.90;99.90;;;;;;5032917;28;20174;-70
2021/07/08 07:40:40;;;;;;;7.93;3.80;;;21.90;99.90;;;;;;5032642;28;20175;-70
2021/07/08 07:43:05;;;;;;;5.47;3.60;;;22.30;99.90;;;;;;5032920;28;20615;-70
2021/07/08 07:45:31;;;;;;;6.43;3.47;;;22.50;99.90;;;;;;5016157;28;20195;-71
2021/07/08 07:47:56;;;;;;;4.60;3.17;;;22.90;99.90;;;;;;5015924;28;20719;-71
2021/07/08 07:50:24;;;;;;;5.00;3.70;;;22.90;99.90;;;;;;5032467;28;20726;-71
2021/07/08 07:52:52;;;;;;;4.60;4.13;;;22.80;99.90;;;;;;5033747;28;20654;-70
2021/07/08 07:55:18;;;;;;;4.87;3.33;;;22.90;99.90;;;;;;5032401;28;20191;-71
2021/07/08 07:57:43;;;;;;;5.23;3.80;;;22.90;99.90;;;;;;5033811;28;20302;-70
2021/07/08 08:00:10;;;;;;;4.80;3.10;;;23.20;99.90;;;;;;5033599;28;20175;-70
2021/07/08 08:02:35;;;;;;;4.43;2.80;;;23.30;99.90;;;;;;5032597;28;20192;-71
2021/07/08 08:10:13;;;;;;;4.67;2.20;;;23.00;99.90;;;;;;5032404;28;20232;-70
2021/07/08 08:12:39;;;;;;;3.30;2.10;;;23.10;99.90;;;;;;5015693;28;20207;-70
2021/07/08 08:15:06;;;;;;;2.50;1.80;;;23.20;99.90;;;;;;5032274;28;20685;-70
2021/07/08 08:17:33;;;;;;;2.57;2.00;;;23.10;99.90;;;;;;5032328;28;20175;-70
2021/07/08 08:19:59;;;;;;;2.13;1.63;;;23.10;99.90;;;;;;5031860;28;20673;-71
2021/07/08 08:22:25;;;;;;;2.73;1.87;;;23.10;99.90;;;;;;5031957;28;20171;-70
2021/07/08 08:24:51;;;;;;;6.03;2.13;;;23.20;99.90;;;;;;5032010;28;20260;-70
2021/07/08 08:27:16;;;;;;;5.37;1.80;;;23.30;99.90;;;;;;5015521;28;20179;-70
2021/07/08 08:29:42;;;;;;;3.50;2.00;;;23.50;99.90;;;;;;5031762;28;20525;-70
2021/07/08 08:32:09;;;;;;;2.97;1.90;;;23.70;99.90;;;;;;5031954;28;20199;-71
2021/07/08 08:34:35;;;;;;;2.37;1.67;;;23.80;99.90;;;;;;5031836;28;20306;-70
2021/07/08 08:37:01;;;;;;;3.03;1.90;;;24.10;99.90;;;;;;5015332;28;20635;-70
2021/07/08 08:39:26;;;;;;;3.70;1.80;;;24.40;99.90;;;;;;5031598;28;20179;-70
2021/07/08 08:41:52;;;;;;;4.43;1.90;;;24.60;99.90;;;;;;5033168;28;20170;-71
2021/07/08 08:44:17;;;;;;;1.80;1.60;;;24.70;99.90;;;;;;5032785;28;20191;-70
2021/07/08 08:46:43;;;;;;;4.80;2.13;;;24.70;99.90;;;;;;5031682;28;20229;-70
2021/07/08 08:49:08;;;;;;;3.83;1.60;;;24.50;99.90;;;;;;5032653;28;20179;-71
2021/07/08 08:51:35;;;;;;;5.00;1.70;;;24.40;99.90;;;;;;5031389;28;20281;-70
2021/07/08 08:54:00;;;;;;;2.30;1.23;;;24.20;99.90;;;;;;5031440;28;20179;-71
2021/07/08 08:56:27;;;;;;;4.03;1.30;;;24.10;99.90;;;;;;5015122;28;20175;-70
2021/07/08 08:58:52;;;;;;;3.03;1.30;;;23.90;99.90;;;;;;5031511;28;20167;-70
2021/07/08 09:01:18;;;;;;;1.80;1.30;;;23.80;99.90;;;;;;5030503;28;20170;-70
2021/07/08 09:03:44;;;;;;;2.43;1.23;;;23.90;99.90;;;;;;5031408;28;20546;-70
2021/07/08 09:06:11;;;;;;;2.30;1.10;;;24.10;99.90;;;;;;5031015;28;20344;-70
2021/07/08 09:08:38;;;;;;;1.53;1.20;;;24.20;99.90;;;;;;5031110;28;20170;-70
2021/07/08 09:11:08;;;;;;;1.63;1.20;;;24.30;99.90;;;;;;5031124;28;20691;-70
2021/07/08 09:13:43;;;;;;;2.33;1.30;;;24.40;99.90;;;;;;5014723;28;20210;-70
2021/07/08 09:16:16;;;;;;;2.97;1.20;;;24.60;99.90;;;;;;5031151;28;20198;-71
2021/07/08 09:18:42;;;;;;;2.87;1.20;;;24.80;99.90;;;;;;5031948;28;20186;-70
2021/07/08 09:21:19;;;;;;;2.75;1.30;;;24.90;99.90;;;;;;5032259;28;20182;-70
2021/07/08 09:24:06;;;;;;;1.67;1.00;;;25.00;99.90;;;;;;5031094;28;20769;-70
2021/07/08 09:26:32;;;;;;;2.43;1.30;;;24.80;99.90;;;;;;5032266;28;20177;-70
2021/07/08 09:29:20;;;;;;;2.50;1.10;;;24.80;99.90;;;;;;5031037;28;20591;-70
2021/07/08 09:31:54;;;;;;;1.83;0.90;;;24.80;99.90;;;;;;5031011;28;20611;-70
2021/07/08 09:34:30;;;;;;;2.67;1.30;;;24.80;99.90;;;;;;5030874;28;20228;-71
2021/07/08 09:37:11;;;;;;;1.80;1.23;;;24.90;99.90;;;;;;5031034;28;20769;-70
2021/07/08 09:39:45;;;;;;;2.67;0.90;;;25.10;99.90;;;;;;5031814;28;20175;-71
2021/07/08 09:42:13;;;;;;;2.30;0.93;;;25.20;99.90;;;;;;5031078;28;20263;-71
2021/07/08 09:44:39;;;;;;;1.85;1.00;;;25.20;99.90;;;;;;5030959;28;20199;-70
2021/07/08 09:47:04;;;;;;;2.15;1.00;;;25.20;99.90;;;;;;5030813;28;20170;-71
2021/07/08 09:49:30;;;;;;;3.55;1.08;;;25.30;99.90;;;;;;5030488;28;20193;-70
2021/07/08 09:51:56;;;;;;;1.17;0.87;;;25.30;99.90;;;;;;5030699;28;20221;-70
2021/07/08 09:57:40;;;;;;;2.65;1.17;;;25.10;99.90;;;;;;5030896;28;20308;-70
2021/07/08 10:00:18;;;;;;;1.10;0.87;;;25.30;99.90;;;;;;5030460;28;20228;-70
2021/07/08 10:02:44;;;;;;;2.45;0.90;;;25.40;99.90;;;;;;5031936;28;20175;-70
2021/07/08 10:05:10;;;;;;;2.40;1.00;;;25.40;99.90;;;;;;5030539;28;20618;-70
2021/07/08 10:07:35;;;;;;;1.98;1.08;;;25.50;99.90;;;;;;5030650;28;20254;-70
2021/07/08 10:10:01;;;;;;;2.90;1.57;;;25.40;99.90;;;;;;5030293;28;20171;-70
2021/07/08 10:12:27;;;;;;;4.75;1.02;;;25.40;99.90;;;;;;5033422;28;20203;-70
2021/07/08 10:14:52;;;;;;;1.50;1.08;;;25.50;99.90;;;;;;5034436;28;20237;-70
2021/07/08 10:17:19;;;;;;;1.50;0.75;;;25.40;99.90;;;;;;5034458;28;20175;-70
2021/07/08 10:19:45;;;;;;;1.27;1.05;;;25.50;99.90;;;;;;5034245;28;20548;-70
2021/07/08 10:22:11;;;;;;;1.60;0.82;;;25.50;99.90;;;;;;5017843;28;20257;-70
2021/07/08 10:24:37;;;;;;;1.60;0.90;;;25.40;99.90;;;;;;5034254;28;20226;-70
2021/07/08 10:27:03;;;;;;;1.40;1.05;;;25.30;99.90;;;;;;5034315;28;20186;-71
2021/07/08 10:29:28;;;;;;;1.65;1.00;;;25.40;99.90;;;;;;5033871;28;20190;-70
2021/07/08 10:31:54;;;;;;;1.75;0.90;;;25.60;99.90;;;;;;5034043;28;20187;-71
2021/07/08 10:34:20;;;;;;;3.42;1.00;;;25.50;99.90;;;;;;5034047;28;20268;-71
2021/07/08 10:36:47;;;;;;;2.22;1.23;;;25.50;99.90;;;;;;5033900;28;20209;-70
2021/07/08 10:39:15;;;;;;;1.63;1.10;;;25.60;99.90;;;;;;5033805;28;20179;-71
2021/07/08 10:41:42;;;;;;;0.80;0.77;;;25.60;99.90;;;;;;5035241;28;20195;-71
2021/07/08 10:44:39;;;;;;;1.90;1.00;;;25.70;99.90;;;;;;5033818;28;20541;-70
2021/07/08 10:47:05;;;;;;;1.30;1.10;;;25.80;99.90;;;;;;5035198;28;20169;-70
2021/07/08 10:49:38;;;;;;;1.90;0.80;;;25.70;99.90;;;;;;5033537;28;20199;-70
2021/07/08 10:52:10;;;;;;;1.73;0.90;;;25.70;99.90;;;;;;5033820;28;20201;-71
2021/07/08 10:54:35;;;;;;;2.00;1.00;;;25.60;99.90;;;;;;5033621;28;20199;-71
2021/07/08 10:57:02;;;;;;;2.03;1.33;;;25.60;99.90;;;;;;5033733;28;20167;-70
2021/07/08 10:59:39;;;;;;;1.97;1.10;;;25.40;99.90;;;;;;5033509;28;20168;-71
2021/07/08 11:02:05;;;;;;;1.37;1.03;;;25.40;99.90;;;;;;5033653;28;20173;-71
2021/07/08 11:04:56;;;;;;;3.50;1.20;;;25.60;99.90;;;;;;5055367;23;20235;-83
2021/07/08 11:07:22;;;;;;;2.37;0.90;;;25.60;99.90;;;;;;4983669;28;20283;-83
2021/07/08 11:09:59;;;;;;;2.60;0.87;;;25.60;99.90;;;;;;4970425;28;20686;-82
2021/07/08 11:12:29;;;;;;;1.20;0.80;;;25.70;99.90;;;;;;4971454;28;20294;-83
2021/07/08 11:14:54;;;;;;;1.13;0.80;;;25.70;99.90;;;;;;4987840;28;20187;-83
2021/07/08 11:17:20;;;;;;;1.70;0.90;;;25.50;99.90;;;;;;4988002;28;20175;-83
2021/07/08 11:19:47;;;;;;;1.25;0.90;;;25.60;99.90;;;;;;4987749;28;20263;-82
2021/07/08 11:22:22;;;;;;;3.03;0.80;;;25.60;99.90;;;;;;4985897;28;20207;-82
2021/07/08 11:24:51;;;;;;;2.30;1.00;;;25.70;99.90;;;;;;5019489;28;20195;-82
2021/07/08 11:27:20;;;;;;;1.60;0.90;;;25.70;99.90;;;;;;4985528;28;20176;-82
2021/07/08 11:29:53;;;;;;;1.40;0.90;;;25.70;99.90;;;;;;4984709;28;20184;-82
2021/07/08 11:32:24;;;;;;;2.88;0.75;;;25.80;99.90;;;;;;4983845;28;20238;-82
2021/07/08 11:35:00;;;;;;;0.60;0.60;;;25.90;99.90;;;;;;4999936;28;20199;-82
2021/07/08 11:37:31;;;;;;;1.25;0.80;;;26.00;99.90;;;;;;4999776;28;20199;-82
2021/07/08 11:39:59;;;;;;;2.22;0.98;;;26.00;99.90;;;;;;4984613;28;20194;-83
2021/07/08 11:42:30;;;;;;;2.67;0.93;;;26.10;99.90;;;;;;4983399;28;20259;-82
2021/07/08 11:44:56;;;;;;;1.05;0.80;;;26.10;99.90;;;;;;5000098;28;20191;-83
2021/07/08 11:47:22;;;;;;;0.90;0.70;;;26.00;99.90;;;;;;4983802;28;20190;-83
2021/07/08 11:49:48;;;;;;;3.03;0.88;;;26.10;99.90;;;;;;4983135;28;20183;-82
2021/07/08 11:52:19;;;;;;;1.75;0.70;;;26.20;99.90;;;;;;4983976;28;20206;-81
2021/07/08 11:54:58;;;;;;;2.63;0.93;;;26.20;99.90;;;;;;5002223;28;20187;-82
2021/07/08 11:57:24;;;;;;;2.93;1.10;;;26.30;99.90;;;;;;5001788;28;20172;-82
2021/07/08 11:59:49;;;;;;;1.92;0.80;;;26.40;99.90;;;;;;4984612;28;20195;-81
2021/07/08 12:02:35;;;;;;;1.95;1.30;;;26.60;99.90;;;;;;4984222;28;20550;-81
2021/07/08 12:05:14;;;;;;;1.55;0.70;;;26.60;99.90;;;;;;4984326;28;20215;-82
2021/07/08 12:07:41;;;;;;;2.20;0.90;;;26.50;99.90;;;;;;4984828;28;20262;-82
2021/07/08 12:10:08;;;;;;;1.05;0.90;;;26.40;99.90;;;;;;4970221;28;20179;-81
2021/07/08 12:12:34;;;;;;;1.35;1.00;;;26.30;99.90;;;;;;4986696;28;20219;-82
2021/07/08 12:15:00;;;;;;;1.50;1.00;;;26.20;99.90;;;;;;4985684;28;20239;-81
2021/07/08 12:17:30;;;;;;;2.30;0.93;;;26.10;99.90;;;;;;5002061;28;20262;-81
2021/07/08 12:20:09;;;;;;;2.45;1.33;;;26.10;99.90;;;;;;5001210;28;20198;-82
2021/07/08 12:22:59;;;;;;;3.60;1.10;;;26.10;99.90;;;;;;4986377;28;20274;-80
2021/07/08 12:25:25;;;;;;;3.67;1.00;;;26.00;99.90;;;;;;4985251;28;20227;-82
2021/07/08 12:27:51;;;;;;;1.75;1.00;;;26.00;99.90;;;;;;5001883;28;20184;-81
2021/07/08 12:30:27;;;;;;;2.92;1.17;;;25.90;99.90;;;;;;5001244;28;20179;-81
2021/07/08 12:33:12;;;;;;;2.78;1.13;;;25.70;99.90;;;;;;4985767;28;20587;-81
2021/07/08 12:35:43;;;;;;;2.67;0.98;;;25.80;99.90;;;;;;5003258;28;20193;-81
2021/07/08 12:38:10;;;;;;;4.05;1.27;;;25.60;99.90;;;;;;5020260;28;20167;-81
2021/07/08 12:40:36;;;;;;;3.35;1.20;;;25.40;99.90;;;;;;5002682;28;20632;-82
2021/07/08 12:43:12;;;;;;;2.22;1.25;;;25.50;99.90;;;;;;4985789;28;20179;-81
2021/07/08 12:45:39;;;;;;;3.53;1.15;;;25.40;99.90;;;;;;4983496;28;20202;-81
2021/07/08 12:48:12;;;;;;;2.70;1.10;;;25.20;99.90;;;;;;4983658;28;20225;-81
2021/07/08 12:50:40;;;;;;;2.00;0.93;;;25.20;99.90;;;;;;4999204;28;20181;-81
2021/07/08 12:53:13;;;;;;;1.10;1.00;;;25.00;99.90;;;;;;4983626;28;20203;-81
2021/07/08 12:55:43;;;;;;;1.38;1.05;;;24.90;99.90;;;;;;4982932;28;20537;-81